Browntown, Wisconsin
Current Conditions -  °F | °C
As of 11:35 PM on Thursday 30 Oct 2014 (Local Time) from KEFT Reporting Station
Overcast Overcast  
Wind Chill: 39°   Ceiling: 4100
Heat Index: 45°   Visibility: 10mi
Dew Point: 37°   Wind: 10mph
Humidity: 76%   Direction: 310°NW
Pressure: 30.06"   Gusts: NA
Location:  42.58°N, 89.79°W
Report Text: KEFT 310435Z AUTO 31009KT 10SM OVC041 07/03 A3006 RMK AO2
Loading
Personal Weather Stations






























Interactive Weather Map
Tropical Storm Tracking
New forecast layout! Learn more

10-Day Weather Forecast

Advertisements
Track Severe Weather on mobile